Time;durP1;ratioP1;P1;durP2;ratioP2;P2;SDS_P1;SDS_P2;PMS_P1;PMS_P2;Temp;Humidity;BMP_temperature;BMP_pressure;BME280_temperature;BME280_humidity;BME280_pressure;Samples;Min_cycle;Max_cycle;Signal;HPM_P1;HPM_P2
2022/05/18 04:58:20;;;;;;;6.82;3.78;;;;;;;;;;5167987;23;20487;-58
2022/05/18 05:00:49;;;;;;;7.80;4.72;;;;;;;;;;4897993;29;20032;-59
2022/05/18 05:03:15;;;;;;;10.20;5.35;;;;;;;;;;4898128;29;20039;-59
2022/05/18 05:05:41;;;;;;;9.57;4.45;;;;;;;;;;4898051;29;20103;-61
2022/05/18 05:08:07;;;;;;;15.02;4.85;;;;;;;;;;4897944;29;20072;-59
2022/05/18 05:10:33;;;;;;;6.82;4.40;;;;;;;;;;4897621;29;20017;-59
2022/05/18 05:12:59;;;;;;;8.35;5.00;;;;;;;;;;4897693;29;20456;-60
2022/05/18 05:15:25;;;;;;;9.95;4.70;;;;;;;;;;4897592;29;20378;-57
2022/05/18 05:17:51;;;;;;;8.32;4.60;;;;;;;;;;4897675;29;20508;-60
2022/05/18 05:20:17;;;;;;;9.77;4.03;;;;;;;;;;4897517;29;20037;-59
2022/05/18 05:22:43;;;;;;;6.50;4.13;;;;;;;;;;4897591;29;20032;-61
2022/05/18 05:25:10;;;;;;;10.73;4.45;;;;;;;;;;4897544;29;20393;-59
2022/05/18 05:27:36;;;;;;;7.70;4.18;;;;;;;;;;4897312;29;20055;-60
2022/05/18 05:30:04;;;;;;;7.70;4.00;;;;;;;;;;4897441;29;20456;-58
2022/05/18 05:32:30;;;;;;;6.50;3.88;;;;;;;;;;4897590;29;20043;-59
2022/05/18 05:34:56;;;;;;;10.60;4.20;;;;;;;;;;4897368;29;20121;-58
2022/05/18 05:37:22;;;;;;;9.95;4.25;;;;;;;;;;4894428;29;20129;-61
2022/05/18 05:39:48;;;;;;;7.13;3.78;;;;;;;;;;4896777;29;20024;-58
2022/05/18 05:42:14;;;;;;;8.02;3.50;;;;;;;;;;4897331;29;20112;-61
2022/05/18 05:44:41;;;;;;;6.85;3.42;;;;;;;;;;4897051;29;20067;-63
2022/05/18 05:47:08;;;;;;;8.05;3.08;;;;;;;;;;4897233;29;20037;-62
2022/05/18 05:49:37;;;;;;;5.60;3.10;;;;;;;;;;4897103;29;20060;-63
2022/05/18 05:52:03;;;;;;;7.28;3.15;;;;;;;;;;4897312;29;20017;-61
2022/05/18 05:54:29;;;;;;;8.38;2.80;;;;;;;;;;4897326;29;20036;-63
2022/05/18 05:56:56;;;;;;;6.57;2.78;;;;;;;;;;4897100;29;20115;-60
2022/05/18 05:59:22;;;;;;;9.82;3.15;;;;;;;;;;4896472;29;20459;-61
2022/05/18 06:01:49;;;;;;;10.70;2.13;;;;;;;;;;4896965;29;20118;-61
2022/05/18 06:04:15;;;;;;;3.85;2.00;;;;;;;;;;4896872;29;20036;-62
2022/05/18 06:06:41;;;;;;;4.88;2.30;;;;;;;;;;4896763;29;20036;-61
2022/05/18 06:09:07;;;;;;;7.15;2.38;;;;;;;;;;4896374;29;20504;-61
2022/05/18 06:11:34;;;;;;;8.13;2.28;;;;;;;;;;4896779;29;20075;-62
2022/05/18 06:14:01;;;;;;;6.00;2.20;;;;;;;;;;4896607;29;20037;-61
2022/05/18 06:16:27;;;;;;;6.50;2.40;;;;;;;;;;4896997;29;20025;-60
2022/05/18 06:18:53;;;;;;;5.82;2.00;;;;;;;;;;4896581;29;20075;-61
2022/05/18 06:21:19;;;;;;;6.70;2.17;;;;;;;;;;4896777;29;20105;-61
2022/05/18 06:23:45;;;;;;;5.93;2.08;;;;;;;;;;4896090;29;20060;-63
2022/05/18 06:26:11;;;;;;;7.40;2.45;;;;;;;;;;4896511;29;20418;-61
2022/05/18 06:28:37;;;;;;;6.25;1.90;;;;;;;;;;4896304;29;20119;-62
2022/05/18 06:31:06;;;;;;;6.53;2.10;;;;;;;;;;4889036;29;20024;-61
2022/05/18 06:33:32;;;;;;;3.40;1.20;;;;;;;;;;4867111;29;20073;-61
2022/05/18 06:35:58;;;;;;;5.22;1.70;;;;;;;;;;4884644;29;20104;-62
2022/05/18 06:38:24;;;;;;;6.30;1.70;;;;;;;;;;4887848;29;20039;-62
2022/05/18 06:43:35;;;;;;;3.97;1.73;;;;;;;;;;4884502;29;20552;-61
2022/05/18 06:46:01;;;;;;;7.50;1.50;;;;;;;;;;4885461;29;20445;-62
2022/05/18 06:48:28;;;;;;;4.70;1.20;;;;;;;;;;4881855;29;20408;-62
2022/05/18 06:50:54;;;;;;;6.85;1.33;;;;;;;;;;4895090;29;20095;-62
2022/05/18 06:53:20;;;;;;;6.05;1.55;;;;;;;;;;4896198;29;20032;-63
2022/05/18 06:55:47;;;;;;;6.05;1.33;;;;;;;;;;4896186;29;20028;-63
2022/05/18 06:58:14;;;;;;;3.97;1.50;;;;;;;;;;4878388;29;20052;-65
2022/05/18 07:00:40;;;;;;;6.70;1.85;;;;;;;;;;4877267;29;20045;-61
2022/05/18 07:03:06;;;;;;;5.82;1.67;;;;;;;;;;4877349;29;20037;-62
2022/05/18 07:05:32;;;;;;;5.65;1.52;;;;;;;;;;4876359;29;20115;-61
2022/05/18 07:07:58;;;;;;;7.93;1.33;;;;;;;;;;4877053;29;20070;-62
2022/05/18 07:10:26;;;;;;;5.93;1.30;;;;;;;;;;4877143;29;20132;-62
2022/05/18 07:12:52;;;;;;;2.90;1.00;;;;;;;;;;4877005;29;20257;-62
2022/05/18 07:15:19;;;;;;;8.20;1.60;;;;;;;;;;4877221;29;20025;-62
2022/05/18 07:17:45;;;;;;;7.15;1.55;;;;;;;;;;4877332;29;20477;-62
2022/05/18 07:20:11;;;;;;;6.05;1.40;;;;;;;;;;4877621;29;20375;-62
2022/05/18 07:22:37;;;;;;;6.15;1.40;;;;;;;;;;4877282;29;20029;-62
2022/05/18 07:25:04;;;;;;;7.63;1.17;;;;;;;;;;4877258;29;20032;-62
2022/05/18 07:27:30;;;;;;;4.20;1.27;;;;;;;;;;4876792;29;20101;-63
2022/05/18 07:29:56;;;;;;;4.80;1.25;;;;;;;;;;4877236;29;20460;-64
2022/05/18 07:32:22;;;;;;;4.47;1.05;;;;;;;;;;4877180;29;20037;-62
2022/05/18 07:34:48;;;;;;;6.78;1.50;;;;;;;;;;4877338;29;20033;-63
2022/05/18 07:37:15;;;;;;;4.70;1.00;;;;;;;;;;4876300;29;20143;-61
2022/05/18 07:39:41;;;;;;;2.47;1.15;;;;;;;;;;4877019;29;20029;-62
2022/05/18 07:42:08;;;;;;;5.22;1.83;;;;;;;;;;4876784;29;20435;-63
2022/05/18 07:44:34;;;;;;;3.95;1.45;;;;;;;;;;4876771;29;20032;-63
2022/05/18 07:47:02;;;;;;;6.95;1.50;;;;;;;;;;4876709;29;20112;-61
2022/05/18 07:49:29;;;;;;;2.55;0.90;;;;;;;;;;4876860;29;20037;-60
2022/05/18 07:51:55;;;;;;;7.95;1.40;;;;;;;;;;4876892;29;20025;-61
2022/05/18 07:54:21;;;;;;;4.07;0.90;;;;;;;;;;4876719;29;20052;-61
2022/05/18 07:56:47;;;;;;;1.90;1.00;;;;;;;;;;4876698;29;20051;-61
2022/05/18 07:59:14;;;;;;;2.78;1.20;;;;;;;;;;4877522;29;20053;-62
2022/05/18 08:01:40;;;;;;;5.05;1.20;;;;;;;;;;4880473;29;20052;-62
2022/05/18 08:04:06;;;;;;;11.55;1.52;;;;;;;;;;4880455;29;20025;-62
2022/05/18 08:06:33;;;;;;;4.60;1.20;;;;;;;;;;4880660;29;20044;-62
2022/05/18 08:09:00;;;;;;;6.75;1.20;;;;;;;;;;4880227;29;20072;-61
2022/05/18 08:16:55;;;;;;;3.72;1.00;;;;;;;;;;4879802;29;20500;-63
2022/05/18 08:19:21;;;;;;;7.00;1.20;;;;;;;;;;4879831;29;20045;-62
2022/05/18 08:21:48;;;;;;;2.90;1.10;;;;;;;;;;4879259;29;20030;-61
2022/05/18 08:24:14;;;;;;;6.82;1.50;;;;;;;;;;4879658;29;20040;-61
2022/05/18 08:26:43;;;;;;;3.67;1.23;;;;;;;;;;4880061;29;20025;-61
2022/05/18 08:29:10;;;;;;;4.45;1.65;;;;;;;;;;4879497;29;20117;-61
2022/05/18 08:31:36;;;;;;;5.05;1.17;;;;;;;;;;4879962;29;20075;-61
2022/05/18 08:34:02;;;;;;;8.15;1.30;;;;;;;;;;4879695;29;20044;-61
2022/05/18 08:36:31;;;;;;;4.70;1.02;;;;;;;;;;4879561;29;20033;-63
2022/05/18 08:38:57;;;;;;;2.15;1.10;;;;;;;;;;4879699;29;20028;-60
2022/05/18 08:41:25;;;;;;;5.78;1.10;;;;;;;;;;4879725;29;20033;-63
2022/05/18 08:43:53;;;;;;;4.90;1.25;;;;;;;;;;4879326;29;20441;-61
2022/05/18 08:46:19;;;;;;;4.60;1.30;;;;;;;;;;4879643;29;20124;-62
2022/05/18 08:49:09;;;;;;;4.03;1.10;;;;;;;;;;4879016;29;20040;-61
2022/05/18 08:51:35;;;;;;;9.15;1.33;;;;;;;;;;4869953;29;20041;-62
2022/05/18 08:54:12;;;;;;;3.67;1.33;;;;;;;;;;4879578;29;20036;-61
2022/05/18 08:56:39;;;;;;;6.28;1.50;;;;;;;;;;4878998;29;20071;-62
2022/05/18 08:59:10;;;;;;;7.20;1.40;;;;;;;;;;4878981;29;20060;-62
2022/05/18 09:01:41;;;;;;;8.07;1.27;;;;;;;;;;4879467;29;20029;-62
2022/05/18 09:04:10;;;;;;;4.35;1.00;;;;;;;;;;4879173;29;20565;-61
2022/05/18 09:06:51;;;;;;;8.18;1.00;;;;;;;;;;4878862;29;20056;-62
2022/05/18 09:12:16;;;;;;;4.28;1.05;;;;;;;;;;4878905;29;20390;-61
2022/05/18 09:14:43;;;;;;;3.88;0.80;;;;;;;;;;4878636;29;20492;-61
2022/05/18 09:17:23;;;;;;;5.50;1.10;;;;;;;;;;4879091;29;20469;-61
2022/05/18 09:19:49;;;;;;;4.63;1.10;;;;;;;;;;4878762;29;20132;-62
2022/05/18 09:22:33;;;;;;;2.00;0.68;;;;;;;;;;4878575;29;20466;-61
2022/05/18 09:25:18;;;;;;;6.28;1.10;;;;;;;;;;4878148;29;20047;-62
2022/05/18 09:28:00;;;;;;;8.52;1.52;;;;;;;;;;4877388;29;20105;-61
2022/05/18 09:30:33;;;;;;;6.57;1.10;;;;;;;;;;4878798;29;20040;-61
2022/05/18 09:33:06;;;;;;;7.22;0.90;;;;;;;;;;4878826;29;20033;-62
2022/05/18 09:35:47;;;;;;;4.63;1.05;;;;;;;;;;4878270;29;20025;-61
2022/05/18 09:38:21;;;;;;;4.82;1.00;;;;;;;;;;4878443;29;20564;-61
2022/05/18 09:40:48;;;;;;;2.67;0.85;;;;;;;;;;4878654;29;20180;-62
2022/05/18 09:43:18;;;;;;;6.05;1.30;;;;;;;;;;4878684;29;20029;-61
2022/05/18 09:45:47;;;;;;;2.50;1.00;;;;;;;;;;4877925;29;20477;-61
2022/05/18 09:48:15;;;;;;;6.55;1.10;;;;;;;;;;4878166;29;20036;-61
2022/05/18 09:50:44;;;;;;;5.45;0.95;;;;;;;;;;4878161;29;20024;-63
2022/05/18 09:53:11;;;;;;;4.63;1.00;;;;;;;;;;4878479;29;20033;-61
2022/05/18 09:55:37;;;;;;;8.88;1.00;;;;;;;;;;4878051;29;20025;-61
2022/05/18 09:58:24;;;;;;;6.45;1.08;;;;;;;;;;4877772;29;20048;-61
2022/05/18 10:07:26;;;;;;;3.72;0.90;;;;;;;;;;4878111;29;20110;-61
2022/05/18 10:09:24;;;;;;;9.68;1.08;;;;;;;;;;4878407;29;20545;-60
2022/05/18 10:11:50;;;;;;;4.35;1.00;;;;;;;;;;4878384;29;20051;-61
2022/05/18 10:14:17;;;;;;;5.70;0.70;;;;;;;;;;4877877;29;20037;-61
2022/05/18 10:16:43;;;;;;;9.13;1.05;;;;;;;;;;4878233;29;20439;-61
2022/05/18 10:19:15;;;;;;;5.70;0.95;;;;;;;;;;4878269;29;20169;-60
2022/05/18 10:21:50;;;;;;;3.13;1.05;;;;;;;;;;4877884;29;20382;-60
2022/05/18 10:24:35;;;;;;;3.20;0.80;;;;;;;;;;4877931;29;20036;-61
2022/05/18 10:27:31;;;;;;;3.92;1.00;;;;;;;;;;4877776;29;20390;-61
2022/05/18 10:30:08;;;;;;;5.53;0.80;;;;;;;;;;4802189;29;20062;-61
2022/05/18 10:32:35;;;;;;;5.32;0.77;;;;;;;;;;4801899;29;20034;-61
2022/05/18 10:35:01;;;;;;;3.25;1.05;;;;;;;;;;4802116;29;20067;-61
2022/05/18 10:37:36;;;;;;;4.05;0.73;;;;;;;;;;4802199;29;20035;-61
2022/05/18 10:40:02;;;;;;;3.95;0.88;;;;;;;;;;4802210;29;20039;-61
2022/05/18 10:42:30;;;;;;;2.72;0.82;;;;;;;;;;4802263;29;20137;-61
2022/05/18 10:44:59;;;;;;;2.97;1.00;;;;;;;;;;4801733;29;20029;-60
2022/05/18 10:47:30;;;;;;;3.67;1.10;;;;;;;;;;4801836;29;20043;-62
2022/05/18 10:50:14;;;;;;;5.88;1.10;;;;;;;;;;4802132;29;20038;-61
2022/05/18 10:52:40;;;;;;;2.88;0.73;;;;;;;;;;4801897;29;20080;-61
2022/05/18 10:55:15;;;;;;;3.20;1.10;;;;;;;;;;4802086;29;20046;-61
2022/05/18 10:57:42;;;;;;;5.10;1.05;;;;;;;;;;4801675;29;20042;-61
2022/05/18 11:00:11;;;;;;;3.92;1.02;;;;;;;;;;4801444;29;20092;-60
2022/05/18 11:02:46;;;;;;;3.85;0.90;;;;;;;;;;4802007;29;20396;-60
2022/05/18 11:05:18;;;;;;;3.85;1.08;;;;;;;;;;4803736;29;20077;-60
2022/05/18 11:07:45;;;;;;;5.68;1.38;;;;;;;;;;4885843;29;20393;-61
2022/05/18 11:10:11;;;;;;;5.28;0.70;;;;;;;;;;4890702;29;20035;-61
2022/05/18 11:12:56;;;;;;;7.55;0.90;;;;;;;;;;4889714;29;20427;-60
2022/05/18 11:15:26;;;;;;;4.72;0.85;;;;;;;;;;4895677;29;20144;-61
2022/05/18 11:17:54;;;;;;;6.68;1.10;;;;;;;;;;4895482;29;20084;-61
2022/05/18 11:20:26;;;;;;;2.70;0.80;;;;;;;;;;4895739;29;20044;-62
2022/05/18 11:22:53;;;;;;;6.35;1.30;;;;;;;;;;4895572;29;20180;-62
2022/05/18 11:25:22;;;;;;;4.40;0.93;;;;;;;;;;4895912;29;20045;-61
2022/05/18 11:27:51;;;;;;;2.47;0.95;;;;;;;;;;4894680;29;20041;-62
2022/05/18 11:30:17;;;;;;;5.70;1.17;;;;;;;;;;4895622;29;20046;-62
2022/05/18 11:32:46;;;;;;;4.90;1.30;;;;;;;;;;4895254;29;20089;-61
2022/05/18 11:35:21;;;;;;;5.07;0.98;;;;;;;;;;4898749;29;20493;-61
2022/05/18 11:37:50;;;;;;;3.13;1.10;;;;;;;;;;4899135;29;20625;-70
2022/05/18 11:40:35;;;;;;;6.10;1.15;;;;;;;;;;4899519;29;20131;-61
2022/05/18 11:43:35;;;;;;;3.60;0.73;;;;;;;;;;4899134;29;20031;-60
2022/05/18 11:46:10;;;;;;;2.60;0.73;;;;;;;;;;4803799;29;20039;-61
2022/05/18 11:48:48;;;;;;;4.75;0.88;;;;;;;;;;4804680;29;20050;-61
2022/05/18 11:51:29;;;;;;;4.53;0.75;;;;;;;;;;4804849;29;20043;-62
2022/05/18 11:53:58;;;;;;;6.38;1.17;;;;;;;;;;4804409;29;20042;-61
2022/05/18 11:56:27;;;;;;;1.83;0.80;;;;;;;;;;4804758;29;20035;-61
2022/05/18 11:59:30;;;;;;;6.47;1.10;;;;;;;;;;4804165;29;20055;-61
2022/05/18 12:02:01;;;;;;;3.47;0.88;;;;;;;;;;4804620;29;20140;-61
2022/05/18 12:04:42;;;;;;;3.25;0.77;;;;;;;;;;4804616;29;20533;-61
2022/05/18 12:07:13;;;;;;;3.70;0.90;;;;;;;;;;4803856;29;20027;-61
2022/05/18 12:09:51;;;;;;;4.00;0.82;;;;;;;;;;4804495;29;20051;-61
2022/05/18 12:12:17;;;;;;;3.92;0.80;;;;;;;;;;4804636;29;20182;-61
2022/05/18 12:14:43;;;;;;;4.32;1.15;;;;;;;;;;4804020;29;20170;-61
2022/05/18 12:17:18;;;;;;;4.97;1.13;;;;;;;;;;4804137;29;20095;-61
2022/05/18 12:20:03;;;;;;;5.15;0.90;;;;;;;;;;4803921;29;20488;-61
2022/05/18 12:22:36;;;;;;;3.45;0.90;;;;;;;;;;4886045;29;20115;-61
2022/05/18 12:25:01;;;;;;;;;;;;;;;;;;4898759;29;20462;-61
2022/05/18 12:27:28;;;;;;;4.88;0.88;;;;;;;;;;4898445;29;20002;-61
2022/05/18 12:29:56;;;;;;;3.67;0.90;;;;;;;;;;4898591;29;20389;-61
2022/05/18 12:32:23;;;;;;;6.50;1.00;;;;;;;;;;4898909;29;20024;-61
2022/05/18 12:35:06;;;;;;;2.17;0.90;;;;;;;;;;4898618;29;20051;-61
2022/05/18 12:37:32;;;;;;;2.58;0.70;;;;;;;;;;4898350;29;20063;-61
2022/05/18 12:40:06;;;;;;;4.43;0.80;;;;;;;;;;4898722;29;20127;-61
2022/05/18 12:42:34;;;;;;;1.90;0.50;;;;;;;;;;4898574;29;20036;-61
2022/05/18 12:45:10;;;;;;;5.53;1.10;;;;;;;;;;4898453;29;20032;-61
2022/05/18 12:47:39;;;;;;;2.03;0.80;;;;;;;;;;4898333;29;20047;-61
2022/05/18 12:50:14;;;;;;;3.63;0.70;;;;;;;;;;4898261;29;20084;-62
2022/05/18 12:52:49;;;;;;;3.63;0.80;;;;;;;;;;4881283;29;20107;-61
2022/05/18 12:55:35;;;;;;;2.72;1.00;;;;;;;;;;4898359;29;20448;-61
2022/05/18 12:58:24;;;;;;;7.38;1.13;;;;;;;;;;4897979;29;20025;-61
2022/05/18 13:01:01;;;;;;;2.78;1.15;;;;;;;;;;4898072;29;20100;-60
2022/05/18 13:03:41;;;;;;;2.38;0.77;;;;;;;;;;4898236;29;20355;-61
2022/05/18 13:06:18;;;;;;;2.88;0.82;;;;;;;;;;4898091;29;20040;-61
2022/05/18 13:09:14;;;;;;;1.58;0.80;;;;;;;;;;4897524;29;20032;-61
2022/05/18 13:11:43;;;;;;;3.58;1.45;;;;;;;;;;4878093;29;20047;-61
2022/05/18 13:14:18;;;;;;;4.20;1.33;;;;;;;;;;4898015;29;20029;-62
2022/05/18 13:16:44;;;;;;;2.63;0.82;;;;;;;;;;4897733;29;20025;-61
2022/05/18 13:19:20;;;;;;;4.22;0.77;;;;;;;;;;4897932;29;20385;-61
2022/05/18 13:21:48;;;;;;;4.97;0.93;;;;;;;;;;4897650;29;20821;-61
2022/05/18 13:24:18;;;;;;;2.78;0.80;;;;;;;;;;4897330;29;20024;-61
2022/05/18 13:26:48;;;;;;;4.00;0.93;;;;;;;;;;4897666;29;20847;-61
2022/05/18 13:29:16;;;;;;;4.90;0.90;;;;;;;;;;4897331;29;20044;-61
2022/05/18 13:31:45;;;;;;;3.20;1.00;;;;;;;;;;4897428;29;20493;-61
2022/05/18 13:34:34;;;;;;;3.42;1.00;;;;;;;;;;4897598;29;20036;-61
2022/05/18 13:37:00;;;;;;;1.38;0.65;;;;;;;;;;4897402;29;20056;-61
2022/05/18 13:39:30;;;;;;;4.28;0.82;;;;;;;;;;4897557;29;20043;-61
2022/05/18 13:41:56;;;;;;;3.85;1.15;;;;;;;;;;4897394;29;20111;-61
2022/05/18 13:44:23;;;;;;;4.22;0.90;;;;;;;;;;4897073;29;20036;-61
2022/05/18 13:46:50;;;;;;;2.15;0.77;;;;;;;;;;4897067;29;20063;-61
2022/05/18 13:49:18;;;;;;;3.13;0.90;;;;;;;;;;4897113;29;20041;-61
2022/05/18 13:51:47;;;;;;;2.95;0.95;;;;;;;;;;4880424;29;20045;-62
2022/05/18 13:54:18;;;;;;;3.58;0.70;;;;;;;;;;4896886;29;20088;-61
2022/05/18 13:56:49;;;;;;;3.15;1.20;;;;;;;;;;4896662;29;20028;-60
2022/05/18 13:59:19;;;;;;;2.28;0.63;;;;;;;;;;4896438;29;20053;-61
2022/05/18 14:01:47;;;;;;;4.28;0.90;;;;;;;;;;4896768;29;20375;-61
2022/05/18 14:04:24;;;;;;;2.95;1.00;;;;;;;;;;4896785;29;20037;-61
2022/05/18 14:06:56;;;;;;;5.78;0.80;;;;;;;;;;4896657;29;20112;-62
2022/05/18 14:09:22;;;;;;;2.92;0.80;;;;;;;;;;4896554;29;20486;-61
2022/05/18 14:11:49;;;;;;;1.67;0.60;;;;;;;;;;4896761;29;20100;-62
2022/05/18 14:14:18;;;;;;;2.45;0.60;;;;;;;;;;4896850;29;20040;-61
2022/05/18 14:16:56;;;;;;;2.67;0.65;;;;;;;;;;4895541;29;20035;-61
2022/05/18 14:19:25;;;;;;;4.15;0.80;;;;;;;;;;4888699;29;20053;-60
2022/05/18 14:21:52;;;;;;;2.75;0.55;;;;;;;;;;4886460;29;20073;-60
2022/05/18 14:24:22;;;;;;;3.22;0.85;;;;;;;;;;4878028;29;20445;-61
2022/05/18 14:26:52;;;;;;;0.70;0.50;;;;;;;;;;4877706;29;20033;-61
2022/05/18 14:29:26;;;;;;;4.55;1.17;;;;;;;;;;4895599;29;20591;-61
2022/05/18 14:31:54;;;;;;;1.85;0.90;;;;;;;;;;4896096;29;20032;-61
2022/05/18 14:34:22;;;;;;;3.67;0.80;;;;;;;;;;4895717;29;20107;-62
2022/05/18 14:36:54;;;;;;;2.80;0.68;;;;;;;;;;4896294;29;20033;-60
2022/05/18 14:39:20;;;;;;;4.05;1.08;;;;;;;;;;4896413;29;20028;-61
2022/05/18 14:41:48;;;;;;;3.67;0.75;;;;;;;;;;4886364;29;20367;-61
2022/05/18 14:44:15;;;;;;;2.55;0.70;;;;;;;;;;4877807;29;20540;-62
2022/05/18 14:46:45;;;;;;;1.25;0.65;;;;;;;;;;4891447;29;20477;-62
2022/05/18 14:49:13;;;;;;;3.55;1.15;;;;;;;;;;4896279;29;20482;-62
2022/05/18 14:51:44;;;;;;;2.92;0.77;;;;;;;;;;4896251;29;20032;-62
2022/05/18 14:54:14;;;;;;;4.05;0.90;;;;;;;;;;4896187;29;20036;-61
2022/05/18 14:56:44;;;;;;;5.95;0.85;;;;;;;;;;4867544;29;20572;-62
2022/05/18 14:59:13;;;;;;;3.70;0.77;;;;;;;;;;4888384;29;20056;-60
2022/05/18 15:01:41;;;;;;;5.32;0.70;;;;;;;;;;4891939;29;20398;-60
2022/05/18 15:04:22;;;;;;;2.95;0.80;;;;;;;;;;4877141;29;20037;-61
2022/05/18 15:06:49;;;;;;;3.17;0.70;;;;;;;;;;4876918;29;20033;-60
2022/05/18 15:09:17;;;;;;;3.72;0.90;;;;;;;;;;4876151;29;20037;-62
2022/05/18 15:11:48;;;;;;;5.35;0.95;;;;;;;;;;4876909;29;20554;-62
2022/05/18 15:14:17;;;;;;;3.22;0.77;;;;;;;;;;4877146;29;20029;-64
2022/05/18 15:16:45;;;;;;;2.35;0.70;;;;;;;;;;4876788;29;20033;-64
2022/05/18 15:19:17;;;;;;;3.80;0.80;;;;;;;;;;4876900;29;20037;-63
2022/05/18 15:21:43;;;;;;;3.08;0.70;;;;;;;;;;4877115;29;20029;-61
2022/05/18 15:24:36;;;;;;;4.47;1.17;;;;;;;;;;4876413;29;20482;-61
2022/05/18 15:27:02;;;;;;;3.47;0.60;;;;;;;;;;4873625;29;20041;-61
2022/05/18 15:29:33;;;;;;;4.20;0.90;;;;;;;;;;4859019;29;20406;-61
2022/05/18 15:32:02;;;;;;;3.42;0.90;;;;;;;;;;4878242;29;20047;-63
2022/05/18 15:34:32;;;;;;;4.57;1.17;;;;;;;;;;4890123;29;20032;-60
2022/05/18 15:36:58;;;;;;;1.90;0.73;;;;;;;;;;4883147;29;20040;-63
2022/05/18 15:39:24;;;;;;;4.93;1.45;;;;;;;;;;4881834;29;20064;-63
2022/05/18 15:41:50;;;;;;;4.53;0.90;;;;;;;;;;4882646;29;20049;-61
2022/05/18 15:44:17;;;;;;;2.58;0.80;;;;;;;;;;4878407;29;20500;-62
2022/05/18 15:46:45;;;;;;;5.22;0.98;;;;;;;;;;4883200;29;20112;-64
2022/05/18 15:49:15;;;;;;;1.40;0.70;;;;;;;;;;4876622;29;20041;-62
2022/05/18 15:51:41;;;;;;;7.05;0.88;;;;;;;;;;4876640;29;20108;-61
2022/05/18 15:54:08;;;;;;;3.90;0.90;;;;;;;;;;4876532;29;20032;-60
2022/05/18 15:56:37;;;;;;;4.15;1.33;;;;;;;;;;4876666;29;20037;-62
2022/05/18 15:59:03;;;;;;;3.03;0.80;;;;;;;;;;4881063;29;20052;-60
2022/05/18 16:01:29;;;;;;;3.22;0.88;;;;;;;;;;4895487;29;20135;-61
2022/05/18 16:03:55;;;;;;;7.80;1.05;;;;;;;;;;4895703;29;20048;-59
2022/05/18 16:06:30;;;;;;;4.35;0.95;;;;;;;;;;4894905;29;20032;-59
2022/05/18 16:08:59;;;;;;;5.38;0.90;;;;;;;;;;4895047;29;20045;-60
2022/05/18 16:11:30;;;;;;;4.22;0.90;;;;;;;;;;4893861;29;20025;-60
2022/05/18 16:13:56;;;;;;;5.57;0.90;;;;;;;;;;4894330;29;20033;-60
2022/05/18 16:16:22;;;;;;;1.67;0.60;;;;;;;;;;4894029;29;20397;-61
2022/05/18 16:18:49;;;;;;;5.07;0.90;;;;;;;;;;4894414;29;20040;-59
2022/05/18 16:21:21;;;;;;;3.65;0.85;;;;;;;;;;4897174;29;20471;-60
2022/05/18 16:23:49;;;;;;;2.95;0.65;;;;;;;;;;4897744;29;20025;-60
2022/05/18 16:26:16;;;;;;;5.15;1.10;;;;;;;;;;4897383;29;20424;-61
2022/05/18 16:28:42;;;;;;;3.20;0.85;;;;;;;;;;4897735;29;20055;-59
2022/05/18 16:31:09;;;;;;;1.98;0.80;;;;;;;;;;4897396;29;20041;-61
2022/05/18 16:33:35;;;;;;;3.35;0.90;;;;;;;;;;4898290;29;20047;-60
2022/05/18 16:36:02;;;;;;;5.45;0.93;;;;;;;;;;4897669;29;20028;-62
2022/05/18 16:38:28;;;;;;;3.33;0.70;;;;;;;;;;4880100;29;20025;-61
2022/05/18 16:40:58;;;;;;;3.97;1.10;;;;;;;;;;4879733;29;20021;-61
2022/05/18 16:43:29;;;;;;;1.80;0.80;;;;;;;;;;4879360;29;20108;-61
2022/05/18 16:45:59;;;;;;;6.85;1.10;;;;;;;;;;4878961;29;20022;-61
2022/05/18 16:48:25;;;;;;;3.60;1.52;;;;;;;;;;4878800;29;20088;-60
2022/05/18 16:50:52;;;;;;;3.80;1.00;;;;;;;;;;4879671;29;20025;-62
2022/05/18 16:53:19;;;;;;;4.05;1.05;;;;;;;;;;4879173;29;20029;-60
2022/05/18 16:55:48;;;;;;;4.00;0.90;;;;;;;;;;4879389;29;20449;-61
2022/05/18 16:58:14;;;;;;;3.20;0.98;;;;;;;;;;4878753;29;20049;-61
2022/05/18 17:00:40;;;;;;;3.35;0.80;;;;;;;;;;4879225;29;20068;-61
2022/05/18 17:03:06;;;;;;;3.80;0.98;;;;;;;;;;4879043;29;20029;-59
2022/05/18 17:11:02;;;;;;;3.63;1.00;;;;;;;;;;4878870;29;20052;-59
2022/05/18 17:13:28;;;;;;;2.20;0.90;;;;;;;;;;4879057;29;20112;-58
2022/05/18 17:15:55;;;;;;;4.93;1.20;;;;;;;;;;4878953;29;20434;-57
2022/05/18 17:18:21;;;;;;;1.95;0.73;;;;;;;;;;4878733;29;20064;-60
2022/05/18 17:20:47;;;;;;;6.18;1.20;;;;;;;;;;4879042;29;20401;-60
2022/05/18 17:23:14;;;;;;;4.47;1.00;;;;;;;;;;4879023;29;20083;-61
2022/05/18 17:25:41;;;;;;;4.32;0.80;;;;;;;;;;4878545;29;20553;-61
2022/05/18 17:28:07;;;;;;;8.07;1.00;;;;;;;;;;4878356;29;20072;-61
2022/05/18 17:30:33;;;;;;;3.90;0.80;;;;;;;;;;4881941;29;20401;-59
2022/05/18 17:33:01;;;;;;;3.35;0.80;;;;;;;;;;4886444;29;20115;-60
2022/05/18 17:35:38;;;;;;;4.75;0.90;;;;;;;;;;4878675;29;20021;-60
2022/05/18 17:38:04;;;;;;;2.63;0.70;;;;;;;;;;4878368;29;20040;-61
2022/05/18 17:40:30;;;;;;;1.70;0.70;;;;;;;;;;4878201;29;20397;-59
2022/05/18 17:42:57;;;;;;;7.72;1.08;;;;;;;;;;4878286;29;20053;-58
2022/05/18 17:45:23;;;;;;;2.75;0.75;;;;;;;;;;4878525;29;20025;-59
2022/05/18 17:47:49;;;;;;;3.72;0.90;;;;;;;;;;4878305;29;20047;-61
2022/05/18 17:50:16;;;;;;;2.90;0.98;;;;;;;;;;4878232;29;20508;-60
2022/05/18 17:52:43;;;;;;;3.13;0.80;;;;;;;;;;4861309;29;20051;-61
2022/05/18 17:55:10;;;;;;;7.10;1.15;;;;;;;;;;4878856;29;20024;-60
2022/05/18 17:57:37;;;;;;;3.42;0.95;;;;;;;;;;4878276;29;20550;-62
2022/05/18 18:00:05;;;;;;;2.72;1.17;;;;;;;;;;4878034;29;20091;-62
2022/05/18 18:02:33;;;;;;;6.97;1.02;;;;;;;;;;4878021;29;20037;-61
2022/05/18 18:05:02;;;;;;;5.70;1.48;;;;;;;;;;4878233;29;20037;-61
2022/05/18 18:07:29;;;;;;;4.53;1.67;;;;;;;;;;4878134;29;20029;-62
2022/05/18 18:09:56;;;;;;;2.90;1.38;;;;;;;;;;4877999;29;20021;-62
2022/05/18 18:12:24;;;;;;;4.60;1.40;;;;;;;;;;4877411;29;20128;-61
2022/05/18 18:14:50;;;;;;;5.30;1.75;;;;;;;;;;4877686;29;20100;-62
2022/05/18 18:17:17;;;;;;;3.42;1.48;;;;;;;;;;4877655;29;20036;-59
2022/05/18 18:19:45;;;;;;;4.88;1.40;;;;;;;;;;4877736;29;20033;-61
2022/05/18 18:22:11;;;;;;;4.07;1.45;;;;;;;;;;4878068;29;20033;-60
2022/05/18 18:24:38;;;;;;;6.70;1.48;;;;;;;;;;4877538;29;20029;-62
2022/05/18 18:27:04;;;;;;;4.30;1.40;;;;;;;;;;4877045;29;20033;-62
2022/05/18 18:29:30;;;;;;;3.22;1.50;;;;;;;;;;4877377;29;20045;-62
2022/05/18 18:31:56;;;;;;;4.85;1.40;;;;;;;;;;4877438;29;20479;-60
2022/05/18 18:34:23;;;;;;;6.47;1.40;;;;;;;;;;4877514;29;20091;-60
2022/05/18 18:36:50;;;;;;;5.00;1.20;;;;;;;;;;4877346;29;20120;-60
2022/05/18 18:39:24;;;;;;;5.78;1.02;;;;;;;;;;4876856;29;20025;-59
2022/05/18 18:41:50;;;;;;;5.00;1.38;;;;;;;;;;4877163;29;20033;-59
2022/05/18 18:44:16;;;;;;;4.18;1.25;;;;;;;;;;4877515;29;20029;-60
2022/05/18 18:46:44;;;;;;;10.10;2.03;;;;;;;;;;4877238;29;20432;-59
2022/05/18 18:49:13;;;;;;;5.45;1.30;;;;;;;;;;4877130;29;20033;-59
2022/05/18 18:54:42;;;;;;;5.90;1.20;;;;;;;;;;4877344;29;20056;-61
2022/05/18 18:57:11;;;;;;;4.70;1.00;;;;;;;;;;4877361;29;20397;-61
2022/05/18 18:59:38;;;;;;;3.90;1.02;;;;;;;;;;4877075;29;20049;-61
2022/05/18 19:02:05;;;;;;;2.00;1.00;;;;;;;;;;4877228;29;20033;-62
2022/05/18 19:04:31;;;;;;;6.03;1.30;;;;;;;;;;4877455;29;20037;-61
2022/05/18 19:06:58;;;;;;;7.35;1.20;;;;;;;;;;4877319;29;20069;-60
2022/05/18 19:09:27;;;;;;;4.22;1.30;;;;;;;;;;4877076;29;20041;-61
2022/05/18 19:11:53;;;;;;;5.03;1.00;;;;;;;;;;4877518;29;20086;-61
2022/05/18 19:14:19;;;;;;;5.32;1.10;;;;;;;;;;4877480;29;20033;-61
2022/05/18 19:16:46;;;;;;;2.38;1.00;;;;;;;;;;4876739;29;20056;-61
2022/05/18 19:19:12;;;;;;;4.93;1.05;;;;;;;;;;4877460;29;20053;-61
2022/05/18 19:21:38;;;;;;;3.90;1.00;;;;;;;;;;4877168;29;20029;-61
2022/05/18 19:24:04;;;;;;;4.00;1.10;;;;;;;;;;4877185;29;20037;-61
2022/05/18 19:26:31;;;;;;;4.60;1.13;;;;;;;;;;4877383;29;20222;-61
2022/05/18 19:28:57;;;;;;;6.55;1.13;;;;;;;;;;4877029;29;20056;-62
2022/05/18 19:31:24;;;;;;;4.70;1.27;;;;;;;;;;4876827;29;20040;-62
2022/05/18 19:33:50;;;;;;;3.50;1.00;;;;;;;;;;4876832;29;20497;-61
2022/05/18 19:36:17;;;;;;;4.15;1.10;;;;;;;;;;4877279;29;20037;-61
2022/05/18 19:38:43;;;;;;;4.88;0.85;;;;;;;;;;4876521;29;20037;-61
2022/05/18 19:41:10;;;;;;;2.65;1.10;;;;;;;;;;4876955;29;20104;-60
2022/05/18 19:43:40;;;;;;;3.70;1.08;;;;;;;;;;4876925;29;20033;-60
2022/05/18 19:46:07;;;;;;;5.53;1.20;;;;;;;;;;4876827;29;20029;-60
2022/05/18 19:48:33;;;;;;;2.50;1.10;;;;;;;;;;4876510;29;20048;-60
2022/05/18 19:51:00;;;;;;;3.72;1.10;;;;;;;;;;4876702;29;20025;-59
2022/05/18 19:53:26;;;;;;;2.58;0.90;;;;;;;;;;4877009;29;20029;-60
2022/05/18 19:55:52;;;;;;;7.13;1.23;;;;;;;;;;4879359;29;20056;-59
2022/05/18 19:58:32;;;;;;;4.50;1.10;;;;;;;;;;4880018;29;20116;-60
2022/05/18 20:00:58;;;;;;;2.33;1.00;;;;;;;;;;4880614;29;20026;-61
2022/05/18 20:03:24;;;;;;;3.80;1.00;;;;;;;;;;4877582;29;20104;-61
2022/05/18 20:05:50;;;;;;;4.38;1.20;;;;;;;;;;4880461;29;20029;-59
2022/05/18 20:08:17;;;;;;;7.45;0.85;;;;;;;;;;4880513;29;20103;-60
2022/05/18 20:10:43;;;;;;;4.65;1.00;;;;;;;;;;4880428;29;20029;-61
2022/05/18 20:13:09;;;;;;;6.10;1.10;;;;;;;;;;4889087;29;20068;-58
2022/05/18 20:15:36;;;;;;;4.10;1.02;;;;;;;;;;4898381;29;20029;-58
2022/05/18 20:18:02;;;;;;;6.22;1.17;;;;;;;;;;4897977;29;20075;-58